Time;durP1;ratioP1;P1;durP2;ratioP2;P2;SDS_P1;SDS_P2;PMS_P1;PMS_P2;Temp;Humidity;BMP_temperature;BMP_pressure;BME280_temperature;BME280_humidity;BME280_pressure;Samples;Min_cycle;Max_cycle;Signal;HPM_P1;HPM_P2
2021/07/19 00:01:51;;;;;;;8.05;4.90;;;;;;;14.23;100.00;94183.72;5076314;28;20688;-81
2021/07/19 00:04:17;;;;;;;9.30;4.78;;;;;;;14.18;100.00;94175.66;5077475;28;20217;-81
2021/07/19 00:06:44;;;;;;;8.88;4.88;;;;;;;14.12;100.00;94175.72;5076957;28;20718;-81
2021/07/19 00:09:10;;;;;;;8.82;4.68;;;;;;;14.05;100.00;94181.00;5075833;28;20202;-80
2021/07/19 00:11:37;;;;;;;13.25;4.20;;;;;;;13.99;100.00;94171.34;5075674;28;20561;-80
2021/07/19 00:14:06;;;;;;;9.07;4.78;;;;;;;14.23;100.00;94169.78;5076104;28;20226;-82
2021/07/19 00:16:32;;;;;;;9.75;4.97;;;;;;;14.16;100.00;94167.19;5077413;28;20209;-82
2021/07/19 00:18:59;;;;;;;11.43;4.97;;;;;;;14.28;100.00;94169.16;5077537;28;20199;-81
2021/07/19 00:21:28;;;;;;;7.43;4.80;;;;;;;14.48;100.00;94161.09;5077514;28;20206;-80
2021/07/19 00:23:54;;;;;;;12.52;4.75;;;;;;;14.46;100.00;94169.19;5076014;28;20541;-81
2021/07/19 00:26:21;;;;;;;10.00;4.63;;;;;;;14.44;100.00;94160.75;5075572;28;20230;-80
2021/07/19 00:28:48;;;;;;;8.13;4.90;;;;;;;14.54;100.00;94155.00;5074588;28;20198;-80
2021/07/19 00:31:15;;;;;;;11.88;4.72;;;;;;;14.53;100.00;94156.00;5075628;28;20666;-80
2021/07/19 00:33:43;;;;;;;10.95;4.75;;;;;;;14.55;100.00;94154.75;5076251;28;20230;-80
2021/07/19 00:36:10;;;;;;;10.05;4.65;;;;;;;14.56;100.00;94150.34;5075533;28;20249;-81
2021/07/19 00:38:37;;;;;;;9.65;4.20;;;;;;;14.41;100.00;94148.81;5076415;28;20252;-81
2021/07/19 00:41:04;;;;;;;12.07;5.05;;;;;;;14.44;100.00;94153.66;5075138;28;20203;-80
2021/07/19 00:43:31;;;;;;;6.93;4.40;;;;;;;14.23;100.00;94154.03;5075239;28;20209;-80
2021/07/19 00:45:57;;;;;;;17.83;4.90;;;;;;;14.34;100.00;94149.88;5075295;28;20207;-80
2021/07/19 00:48:25;;;;;;;8.82;4.78;;;;;;;14.23;100.00;94148.78;5074755;28;20712;-80
2021/07/19 00:50:52;;;;;;;8.48;4.28;;;;;;;14.07;100.00;94148.28;5074809;28;20210;-80
2021/07/19 00:53:19;;;;;;;9.00;4.50;;;;;;;14.02;100.00;94150.75;5075378;28;20194;-80
2021/07/19 00:55:49;;;;;;;8.32;4.00;;;;;;;13.86;100.00;94146.78;5074856;28;20195;-80
2021/07/19 00:58:18;;;;;;;10.40;4.55;;;;;;;13.75;100.00;94144.81;5075340;28;20202;-81
2021/07/19 01:00:49;;;;;;;12.77;4.57;;;;;;;13.74;100.00;94147.66;5074748;28;20206;-81
2021/07/19 01:03:17;;;;;;;8.25;4.65;;;;;;;13.71;100.00;94150.72;5075672;28;20210;-81
2021/07/19 01:05:46;;;;;;;9.60;4.28;;;;;;;13.78;100.00;94143.63;5075095;28;20199;-80
2021/07/19 01:08:12;;;;;;;9.07;4.35;;;;;;;13.75;100.00;94149.28;5074867;28;20618;-82
2021/07/19 01:10:40;;;;;;;7.28;4.60;;;;;;;13.73;100.00;94151.31;5075504;28;20260;-81
2021/07/19 01:13:08;;;;;;;7.97;4.95;;;;;;;13.82;100.00;94153.50;5081431;28;20198;-81
2021/07/19 01:15:36;;;;;;;8.68;5.05;;;;;;;14.16;100.00;94148.03;5077835;28;20261;-81
2021/07/19 01:18:03;;;;;;;10.10;4.57;;;;;;;13.96;100.00;94146.31;5074700;28;20225;-81
2021/07/19 01:20:41;;;;;;;7.90;4.50;;;;;;;13.96;100.00;94141.06;5078222;28;20222;-81
2021/07/19 01:23:32;;;;;;;8.60;4.07;;;;;;;13.84;100.00;94142.78;5077411;28;20260;-81
2021/07/19 01:26:07;;;;;;;6.05;4.18;;;;;;;13.78;100.00;94148.88;5075366;28;20202;-80
2021/07/19 01:28:38;;;;;;;15.32;4.68;;;;;;;13.83;100.00;94135.91;5075747;28;20202;-81
2021/07/19 01:31:09;;;;;;;11.57;4.55;;;;;;;13.83;100.00;94135.91;5082686;28;20209;-82
2021/07/19 01:33:37;;;;;;;6.80;4.80;;;;;;;13.84;100.00;94137.53;5083714;28;20217;-82
2021/07/19 01:36:08;;;;;;;8.40;4.82;;;;;;;13.74;100.00;94142.41;5086569;28;20203;-81
2021/07/19 01:38:35;;;;;;;9.52;4.82;;;;;;;13.80;100.00;94137.13;5080168;28;20228;-81
2021/07/19 01:41:02;;;;;;;7.95;4.65;;;;;;;13.83;100.00;94130.66;5076662;28;20723;-80
2021/07/19 01:43:30;;;;;;;9.65;4.93;;;;;;;13.82;100.00;94134.28;5073637;28;20614;-80
2021/07/19 01:45:59;;;;;;;11.30;4.57;;;;;;;13.93;100.00;94131.00;5074771;28;20735;-80
2021/07/19 01:48:26;;;;;;;9.40;4.53;;;;;;;13.91;100.00;94130.41;5073694;28;20198;-79
2021/07/19 01:50:52;;;;;;;7.80;4.63;;;;;;;13.98;100.00;94127.75;5073706;28;20198;-79
2021/07/19 01:53:20;;;;;;;13.30;5.00;;;;;;;14.06;100.00;94135.38;5073572;28;20209;-80
2021/07/19 01:55:47;;;;;;;10.75;4.35;;;;;;;14.02;100.00;94127.13;5073576;28;20597;-80
2021/07/19 01:58:14;;;;;;;8.68;4.28;;;;;;;13.94;100.00;94131.78;5073667;28;20202;-81
2021/07/19 02:00:41;;;;;;;9.38;3.97;;;;;;;13.72;100.00;94132.13;5073475;28;20577;-81
2021/07/19 02:03:09;;;;;;;7.57;3.83;;;;;;;13.51;100.00;94134.06;5073457;28;20557;-81
2021/07/19 02:05:36;;;;;;;6.72;4.13;;;;;;;13.42;100.00;94137.13;5073347;28;20203;-80
2021/07/19 02:08:05;;;;;;;6.83;4.03;;;;;;;13.30;100.00;94137.75;5073656;28;20214;-81
2021/07/19 02:10:33;;;;;;;6.88;3.95;;;;;;;13.41;100.00;94130.28;5076230;28;20199;-81
2021/07/19 02:13:05;;;;;;;8.68;4.43;;;;;;;13.58;100.00;94128.00;5073376;28;20248;-79
2021/07/19 02:15:32;;;;;;;7.93;5.17;;;;;;;13.64;100.00;94129.78;5073227;28;20234;-79
2021/07/19 02:18:02;;;;;;;7.03;4.63;;;;;;;13.58;100.00;94125.38;5073254;28;20609;-80
2021/07/19 02:20:31;;;;;;;8.70;4.25;;;;;;;13.43;100.00;94123.81;5072125;28;20195;-80
2021/07/19 02:23:00;;;;;;;9.17;4.73;;;;;;;13.25;100.00;94119.22;5072823;28;20221;-80
2021/07/19 02:25:27;;;;;;;12.45;4.45;;;;;;;13.15;100.00;94129.34;5073191;28;20688;-80
2021/07/19 02:27:55;;;;;;;10.20;4.70;;;;;;;13.11;100.00;94125.53;5072795;28;20721;-81
2021/07/19 02:30:23;;;;;;;10.97;5.00;;;;;;;13.07;100.00;94127.78;5073081;28;20205;-80
2021/07/19 02:32:54;;;;;;;9.32;5.68;;;;;;;13.21;100.00;94123.28;5073106;28;20202;-79
2021/07/19 02:35:23;;;;;;;9.83;5.43;;;;;;;13.28;100.00;94133.75;5072877;28;20321;-81
2021/07/19 02:37:57;;;;;;;10.23;5.80;;;;;;;13.47;100.00;94132.06;5073067;28;20628;-80
2021/07/19 02:40:25;;;;;;;9.57;5.20;;;;;;;13.30;100.00;94124.63;5073098;28;20202;-79
2021/07/19 02:42:56;;;;;;;12.20;5.68;;;;;;;13.30;100.00;94127.25;5072847;28;20665;-80
2021/07/19 02:45:23;;;;;;;9.38;4.93;;;;;;;13.20;100.00;94129.53;5072903;28;20209;-80
2021/07/19 02:47:51;;;;;;;7.27;4.43;;;;;;;13.05;100.00;94135.00;5072709;28;20198;-81
2021/07/19 02:50:20;;;;;;;10.90;4.17;;;;;;;12.90;100.00;94130.00;5072814;28;20205;-80
2021/07/19 02:52:48;;;;;;;8.07;5.00;;;;;;;12.84;100.00;94128.25;5072400;28;20430;-80
2021/07/19 02:55:18;;;;;;;12.90;5.50;;;;;;;12.81;100.00;94133.88;5072790;28;20230;-80
2021/07/19 02:57:46;;;;;;;11.43;5.27;;;;;;;12.86;100.00;94128.84;5072772;28;20293;-80
2021/07/19 03:00:17;;;;;;;10.85;5.10;;;;;;;12.87;100.00;94135.69;5073173;28;20198;-79
2021/07/19 03:02:48;;;;;;;18.30;5.70;;;;;;;12.79;100.00;94130.66;5072272;28;20198;-80
2021/07/19 03:05:19;;;;;;;8.90;4.83;;;;;;;12.71;100.00;94136.13;5072822;28;20342;-79
2021/07/19 03:07:50;;;;;;;6.70;4.70;;;;;;;12.64;100.00;94144.00;5072792;28;20194;-80
2021/07/19 03:10:22;;;;;;;13.33;6.40;;;;;;;12.75;100.00;94129.44;5072687;28;20214;-80
2021/07/19 03:12:51;;;;;;;10.07;5.63;;;;;;;12.72;100.00;94135.09;5072568;28;20203;-80
2021/07/19 03:15:19;;;;;;;14.23;5.40;;;;;;;12.61;100.00;94133.09;5072656;28;20593;-81
2021/07/19 03:17:49;;;;;;;12.30;5.53;;;;;;;12.57;100.00;94133.53;5072680;28;20202;-80
2021/07/19 03:20:16;;;;;;;16.67;5.70;;;;;;;12.45;100.00;94139.56;5072621;28;20203;-80
2021/07/19 03:22:45;;;;;;;11.47;5.43;;;;;;;12.48;100.00;94139.19;5072555;28;20199;-80
2021/07/19 03:25:13;;;;;;;15.07;6.43;;;;;;;12.55;100.00;94140.75;5072383;28;20203;-80
2021/07/19 03:27:43;;;;;;;12.53;6.20;;;;;;;12.52;100.00;94135.97;5072149;28;20705;-80
2021/07/19 03:30:12;;;;;;;12.63;5.67;;;;;;;12.47;100.00;94138.34;5072658;28;20195;-80
2021/07/19 03:32:39;;;;;;;11.10;6.00;;;;;;;12.51;100.00;94134.34;5074092;28;20198;-79
2021/07/19 03:35:07;;;;;;;11.57;6.40;;;;;;;12.49;100.00;94143.38;5076167;28;20238;-80
2021/07/19 03:37:34;;;;;;;9.90;5.90;;;;;;;12.38;100.00;94139.59;5076198;28;20260;-80
2021/07/19 03:40:00;;;;;;;10.60;6.30;;;;;;;12.35;100.00;94137.38;5076873;28;20203;-81
2021/07/19 03:42:28;;;;;;;10.33;5.90;;;;;;;12.32;100.00;94140.38;5076482;28;20657;-80
2021/07/19 03:44:57;;;;;;;12.30;6.40;;;;;;;12.33;100.00;94136.78;5076121;28;20206;-80
2021/07/19 03:47:23;;;;;;;13.38;6.40;;;;;;;12.39;100.00;94149.06;5076180;28;20198;-79
2021/07/19 03:49:50;;;;;;;12.77;5.60;;;;;;;12.33;100.00;94142.81;5075913;28;20199;-80
2021/07/19 03:52:17;;;;;;;10.50;5.13;;;;;;;12.23;100.00;94146.84;5076211;28;20202;-80
2021/07/19 03:54:44;;;;;;;13.10;5.53;;;;;;;12.16;100.00;94152.88;5075718;28;20222;-80
2021/07/19 03:57:11;;;;;;;11.40;5.63;;;;;;;12.15;100.00;94151.25;5075992;28;20195;-81
2021/07/19 03:59:40;;;;;;;10.33;6.53;;;;;;;12.21;100.00;94147.84;5075853;28;20214;-81
2021/07/19 04:02:12;;;;;;;15.50;6.00;;;;;;;12.24;100.00;94144.03;5075667;28;20199;-80
2021/07/19 04:04:41;;;;;;;13.33;6.70;;;;;;;12.26;100.00;94146.41;5076037;28;20209;-81
2021/07/19 04:07:09;;;;;;;10.00;6.00;;;;;;;12.32;100.00;94143.00;5075548;28;20199;-81
2021/07/19 04:09:38;;;;;;;17.10;6.90;;;;;;;12.30;100.00;94135.34;5075724;28;20198;-80
2021/07/19 04:12:06;;;;;;;12.90;6.23;;;;;;;12.33;100.00;94132.31;5076067;28;20202;-81
2021/07/19 04:14:32;;;;;;;21.07;7.87;;;;;;;12.64;100.00;94137.94;5075431;28;20654;-81
2021/07/19 04:16:59;;;;;;;15.77;7.83;;;;;;;12.69;100.00;94136.31;5075466;28;20260;-80
2021/07/19 04:19:27;;;;;;;15.67;6.73;;;;;;;12.65;100.00;94140.34;5074803;28;20191;-80
2021/07/19 04:21:54;;;;;;;9.95;6.35;;;;;;;12.55;100.00;94139.97;5074382;28;20778;-80
2021/07/19 04:24:20;;;;;;;9.73;5.35;;;;;;;12.48;100.00;94147.03;5075490;28;20199;-80
2021/07/19 04:26:47;;;;;;;13.75;5.18;;;;;;;12.41;100.00;94147.03;5075247;28;20311;-79
2021/07/19 04:29:13;;;;;;;8.27;4.97;;;;;;;12.36;100.00;94147.63;5075221;28;20202;-79
2021/07/19 04:31:40;;;;;;;11.80;5.53;;;;;;;12.39;100.00;94146.44;5075141;28;20206;-79
2021/07/19 04:34:07;;;;;;;13.07;6.57;;;;;;;12.47;100.00;94148.81;5075024;28;20198;-79
2021/07/19 04:36:35;;;;;;;12.47;6.83;;;;;;;12.55;100.00;94151.25;5075286;28;20222;-81
2021/07/19 04:39:01;;;;;;;11.50;6.37;;;;;;;12.64;100.00;94148.41;5075167;28;20210;-80
2021/07/19 04:41:28;;;;;;;10.80;6.20;;;;;;;12.70;100.00;94148.41;5075081;28;20199;-80
2021/07/19 04:43:54;;;;;;;12.98;6.75;;;;;;;12.81;100.00;94149.59;5074301;28;20206;-79
2021/07/19 04:46:24;;;;;;;12.02;6.30;;;;;;;12.84;100.00;94143.97;5074871;28;20212;-78
2021/07/19 04:48:51;;;;;;;13.77;6.55;;;;;;;12.87;100.00;94143.56;5074707;28;20616;-80
2021/07/19 04:51:18;;;;;;;13.02;6.43;;;;;;;12.94;100.00;94141.72;5074878;28;20217;-80
2021/07/19 04:53:49;;;;;;;12.25;6.60;;;;;;;13.05;100.00;94142.88;5074623;28;20600;-79
2021/07/19 04:56:20;;;;;;;15.13;6.65;;;;;;;13.13;100.00;94141.84;5074692;28;20222;-79
2021/07/19 04:58:51;;;;;;;12.50;6.60;;;;;;;13.20;100.00;94144.47;5075255;28;20226;-79
2021/07/19 05:01:19;;;;;;;12.02;6.03;;;;;;;13.25;100.00;94136.78;5074505;28;20226;-80
2021/07/19 05:03:50;;;;;;;8.02;5.30;;;;;;;13.31;100.00;94133.31;5074665;28;20281;-81
2021/07/19 05:06:20;;;;;;;11.02;5.55;;;;;;;13.37;100.00;94136.94;5074547;28;20289;-80
2021/07/19 05:08:49;;;;;;;11.00;5.63;;;;;;;13.48;100.00;94123.19;5074452;28;20230;-79
2021/07/19 05:11:17;;;;;;;11.32;5.25;;;;;;;13.46;100.00;94135.72;5074280;28;20285;-81
2021/07/19 05:13:45;;;;;;;11.48;6.30;;;;;;;13.64;100.00;94130.56;5074033;28;20226;-82
2021/07/19 05:16:12;;;;;;;13.75;6.32;;;;;;;13.79;100.00;94129.47;5074389;28;20227;-82
2021/07/19 05:18:40;;;;;;;8.65;5.65;;;;;;;13.94;100.00;94126.53;5074130;28;20684;-82
2021/07/19 05:21:07;;;;;;;9.65;5.70;;;;;;;14.10;100.00;94119.97;5074112;28;20716;-82
2021/07/19 05:23:33;;;;;;;11.43;6.10;;;;;;;14.20;100.00;94117.69;5074041;28;20585;-81
2021/07/19 05:26:01;;;;;;;10.60;5.45;;;;;;;14.33;100.00;94119.41;5074875;28;20206;-81
2021/07/19 05:28:28;;;;;;;9.10;5.03;;;;;;;14.42;100.00;94121.53;5073980;28;20680;-80
2021/07/19 05:30:55;;;;;;;10.73;5.30;;;;;;;14.55;100.00;94122.44;5074096;28;20202;-80
2021/07/19 05:33:23;;;;;;;9.02;4.95;;;;;;;14.51;100.00;94116.03;5073966;28;20202;-79
2021/07/19 05:35:50;;;;;;;6.93;4.70;;;;;;;14.69;100.00;94121.34;5073834;28;20233;-80
2021/07/19 05:38:17;;;;;;;7.45;4.65;;;;;;;14.90;100.00;94111.41;5073757;28;20206;-81
2021/07/19 05:40:44;;;;;;;9.77;4.32;;;;;;;15.02;100.00;94122.81;5073718;28;20251;-80
2021/07/19 05:43:13;;;;;;;8.30;4.25;;;;;;;15.26;100.00;94123.75;5073720;28;20660;-80
2021/07/19 05:45:40;;;;;;;9.95;5.05;;;;;;;15.52;100.00;94119.16;5073798;28;20203;-80
2021/07/19 05:48:07;;;;;;;7.90;4.85;;;;;;;16.74;100.00;94119.81;5073773;28;20195;-80
2021/07/19 05:50:34;;;;;;;6.10;3.42;;;;;;;17.96;100.00;94128.63;5073679;28;20206;-81
2021/07/19 05:53:01;;;;;;;8.52;3.20;;;;;;;19.65;100.00;94124.97;5073553;28;20206;-81
2021/07/19 05:55:29;;;;;;;5.60;2.60;;;;;;;20.68;100.00;94115.34;5072647;28;20231;-81
2021/07/19 05:57:58;;;;;;;4.78;3.20;;;;;;;21.75;100.00;94136.38;5073473;28;20234;-81
2021/07/19 06:00:26;;;;;;;8.50;3.03;;;;;;;22.22;100.00;94128.50;5073348;28;20206;-81
2021/07/19 06:02:52;;;;;;;4.55;2.88;;;;;;;23.20;100.00;94127.41;5073327;28;20665;-81
2021/07/19 06:05:19;;;;;;;3.72;2.58;;;;;;;23.83;100.00;94123.44;5073430;28;20413;-81
2021/07/19 06:07:46;;;;;;;4.63;2.60;;;;;;;24.18;97.60;94124.31;5073273;28;20205;-80
2021/07/19 06:10:14;;;;;;;6.75;2.72;;;;;;;24.45;93.62;94128.41;5073123;28;20705;-81
2021/07/19 06:12:41;;;;;;;10.20;3.45;;;;;;;24.10;89.83;94124.91;5073444;28;20657;-81
2021/07/19 06:15:11;;;;;;;8.15;2.60;;;;;;;23.83;93.12;94129.59;5073203;28;20199;-82
2021/07/19 06:17:39;;;;;;;3.13;2.28;;;;;;;23.72;91.82;94127.22;5073191;28;20206;-81
2021/07/19 06:20:08;;;;;;;4.88;3.05;;;;;;;22.29;89.26;94137.03;5073105;28;20199;-81
2021/07/19 06:22:35;;;;;;;5.82;3.47;;;;;;;20.82;100.00;94131.63;5073073;28;20248;-81
2021/07/19 06:25:02;;;;;;;7.05;3.88;;;;;;;20.01;100.00;94135.19;5074864;28;20202;-82
2021/07/19 06:27:30;;;;;;;7.53;4.10;;;;;;;19.74;100.00;94139.38;5074709;28;20226;-82
2021/07/19 06:29:59;;;;;;;6.57;3.55;;;;;;;20.06;100.00;94130.72;5073884;28;20198;-82
2021/07/19 06:32:26;;;;;;;14.55;4.40;;;;;;;19.44;100.00;94134.53;5073183;28;20199;-82
2021/07/19 06:34:53;;;;;;;5.40;3.45;;;;;;;19.62;100.00;94133.41;5072963;28;20204;-81
2021/07/19 06:37:20;;;;;;;8.80;4.45;;;;;;;19.22;100.00;94139.81;5073084;28;20261;-81
2021/07/19 06:39:46;;;;;;;8.55;4.05;;;;;;;18.84;100.00;94133.47;5072848;28;20251;-81
2021/07/19 06:42:13;;;;;;;6.30;3.70;;;;;;;19.25;100.00;94136.66;5073307;28;20203;-81
2021/07/19 06:44:39;;;;;;;7.93;4.13;;;;;;;18.97;100.00;94138.44;5073004;28;20210;-81
2021/07/19 06:47:06;;;;;;;7.22;4.10;;;;;;;19.52;100.00;94134.09;5072982;28;20267;-81
2021/07/19 06:49:32;;;;;;;7.78;4.13;;;;;;;20.01;100.00;94132.53;5072821;28;20207;-81
2021/07/19 06:52:00;;;;;;;7.05;4.10;;;;;;;20.33;100.00;94137.84;5073060;28;20202;-80
2021/07/19 06:54:29;;;;;;;5.85;3.53;;;;;;;20.70;100.00;94135.28;5072970;28;20612;-81
2021/07/19 06:56:55;;;;;;;7.00;4.05;;;;;;;20.10;100.00;94133.66;5074237;28;20226;-81
2021/07/19 06:59:22;;;;;;;9.27;4.60;;;;;;;19.64;100.00;94127.88;5074403;28;20602;-81
2021/07/19 07:01:49;;;;;;;7.65;4.82;;;;;;;19.21;100.00;94128.41;5074566;28;20198;-81
2021/07/19 07:04:18;;;;;;;8.15;4.90;;;;;;;19.17;100.00;94131.81;5073591;28;20202;-81
2021/07/19 07:06:44;;;;;;;13.98;5.10;;;;;;;18.97;100.00;94133.13;5073884;28;20198;-81
2021/07/19 07:09:12;;;;;;;8.35;4.88;;;;;;;18.89;100.00;94130.13;5077256;28;20201;-82
2021/07/19 07:11:40;;;;;;;12.30;5.38;;;;;;;18.66;100.00;94134.50;5077276;28;20289;-81
2021/07/19 07:14:07;;;;;;;7.88;4.93;;;;;;;18.78;100.00;94135.22;5076966;28;20669;-81
2021/07/19 07:16:37;;;;;;;7.88;4.28;;;;;;;19.01;100.00;94133.44;5076542;28;20309;-80
2021/07/19 07:19:05;;;;;;;11.77;5.50;;;;;;;19.17;100.00;94123.88;5075752;28;20451;-80
2021/07/19 07:21:34;;;;;;;9.00;5.20;;;;;;;19.32;100.00;94125.91;5076610;28;20546;-79
2021/07/19 07:24:00;;;;;;;12.07;5.47;;;;;;;19.50;100.00;94122.13;5076485;28;20203;-79
2021/07/19 07:26:31;;;;;;;7.20;4.45;;;;;;;19.66;100.00;94123.13;5076174;28;20325;-79
2021/07/19 07:28:57;;;;;;;9.45;4.57;;;;;;;19.72;100.00;94116.84;5076580;28;20202;-78
2021/07/19 07:31:27;;;;;;;8.20;4.10;;;;;;;19.74;100.00;94122.69;5076195;28;20234;-79
2021/07/19 07:33:55;;;;;;;9.32;4.60;;;;;;;19.76;100.00;94126.69;5076419;28;20199;-81
2021/07/19 07:36:22;;;;;;;8.05;5.03;;;;;;;19.42;100.00;94128.69;5076157;28;20231;-79
2021/07/19 07:38:49;;;;;;;8.43;4.47;;;;;;;19.69;100.00;94123.44;5076193;28;20203;-77
2021/07/19 07:41:18;;;;;;;14.45;5.22;;;;;;;19.87;100.00;94122.31;5076139;28;20198;-80
2021/07/19 07:43:46;;;;;;;11.07;5.15;;;;;;;19.91;100.00;94123.41;5076110;28;20661;-81
2021/07/19 07:46:15;;;;;;;10.90;4.78;;;;;;;19.76;100.00;94125.91;5076118;28;20668;-80
2021/07/19 07:48:42;;;;;;;9.05;5.18;;;;;;;19.91;100.00;94131.34;5076248;28;20198;-82
2021/07/19 07:51:10;;;;;;;7.38;4.78;;;;;;;20.28;100.00;94120.06;5076363;28;20205;-81
2021/07/19 07:53:37;;;;;;;11.65;4.82;;;;;;;20.03;100.00;94122.47;5075976;28;20195;-80
2021/07/19 07:56:04;;;;;;;11.77;4.53;;;;;;;20.04;100.00;94132.03;5075676;28;20343;-80
2021/07/19 07:58:31;;;;;;;10.90;5.32;;;;;;;19.85;100.00;94126.25;5076014;28;20203;-80
2021/07/19 08:00:58;;;;;;;12.27;4.72;;;;;;;19.80;100.00;94127.03;5075882;28;20199;-80
2021/07/19 08:03:25;;;;;;;10.65;5.53;;;;;;;20.03;100.00;94133.06;5075298;28;20550;-78
2021/07/19 08:05:51;;;;;;;7.47;4.43;;;;;;;20.26;100.00;94116.06;5075702;28;20297;-78
2021/07/19 08:08:18;;;;;;;12.52;5.00;;;;;;;20.34;100.00;94121.69;5075619;28;20203;-78
2021/07/19 08:10:44;;;;;;;7.65;5.03;;;;;;;20.29;100.00;94119.00;5075464;28;20218;-78
2021/07/19 08:13:11;;;;;;;10.30;5.03;;;;;;;20.38;100.00;94126.50;5075755;28;20218;-79
2021/07/19 08:15:39;;;;;;;10.48;4.70;;;;;;;20.49;100.00;94120.22;5075462;28;20209;-78
2021/07/19 08:18:07;;;;;;;14.15;5.32;;;;;;;20.38;100.00;94118.53;5075442;28;20206;-80
2021/07/19 08:20:33;;;;;;;8.30;4.88;;;;;;;20.46;100.00;94110.13;5074575;28;20530;-79
2021/07/19 08:23:00;;;;;;;11.48;5.10;;;;;;;20.54;100.00;94111.50;5075735;28;20673;-80
2021/07/19 08:25:26;;;;;;;9.15;5.18;;;;;;;20.73;100.00;94114.56;5075233;28;20195;-79
2021/07/19 08:27:53;;;;;;;8.52;4.60;;;;;;;20.82;100.00;94113.84;5075094;28;20230;-79
2021/07/19 08:30:19;;;;;;;13.80;5.70;;;;;;;21.03;100.00;94113.97;5075463;28;20553;-80
2021/07/19 08:32:46;;;;;;;10.65;5.05;;;;;;;21.14;100.00;94114.84;5075527;28;20202;-80
2021/07/19 08:35:15;;;;;;;8.88;4.40;;;;;;;21.19;100.00;94109.53;5075076;28;20195;-79
2021/07/19 08:37:44;;;;;;;11.48;4.88;;;;;;;21.16;100.00;94108.19;5074437;28;20715;-79
2021/07/19 08:40:11;;;;;;;7.30;3.90;;;;;;;21.37;100.00;94109.09;5075248;28;20203;-79
2021/07/19 08:42:39;;;;;;;7.45;4.82;;;;;;;21.28;100.00;94102.66;5075151;28;20203;-80
2021/07/19 08:45:08;;;;;;;11.52;4.82;;;;;;;21.18;100.00;94099.97;5074836;28;20661;-80
2021/07/19 08:47:36;;;;;;;7.40;4.85;;;;;;;21.25;100.00;94097.91;5074174;28;20445;-80
2021/07/19 08:50:02;;;;;;;8.30;4.53;;;;;;;21.53;100.00;94098.53;5074870;28;20199;-79
2021/07/19 08:52:31;;;;;;;8.82;5.07;;;;;;;21.78;100.00;94093.31;5074659;28;20293;-81
2021/07/19 08:54:59;;;;;;;7.88;4.57;;;;;;;21.65;100.00;94095.66;5074869;28;20202;-81
2021/07/19 08:57:27;;;;;;;8.70;4.35;;;;;;;21.36;100.00;94096.84;5074722;28;20317;-80
2021/07/19 08:59:59;;;;;;;8.00;4.95;;;;;;;21.18;100.00;94099.97;5074743;28;20203;-79
2021/07/19 09:02:25;;;;;;;12.00;4.60;;;;;;;21.19;100.00;94098.91;5074721;28;20268;-80
2021/07/19 09:04:52;;;;;;;7.00;4.70;;;;;;;21.33;100.00;94086.75;5074489;28;20199;-79
2021/07/19 09:07:21;;;;;;;8.48;3.88;;;;;;;21.40;100.00;94091.81;5074440;28;20203;-78
2021/07/19 09:09:51;;;;;;;9.18;4.32;;;;;;;21.34;100.00;94092.88;5074482;28;20195;-79
2021/07/19 09:12:17;;;;;;;7.88;4.38;;;;;;;21.38;100.00;94096.59;5074375;28;20199;-78
2021/07/19 09:14:47;;;;;;;11.00;4.72;;;;;;;21.42;100.00;94090.50;5074448;28;20195;-78
2021/07/19 09:17:22;;;;;;;9.38;4.03;;;;;;;21.32;100.00;94085.16;5074181;28;20223;-79
2021/07/19 09:19:48;;;;;;;8.57;4.10;;;;;;;21.24;100.00;94085.66;5074474;28;20191;-78
2021/07/19 09:22:23;;;;;;;5.60;3.60;;;;;;;21.12;100.00;94085.09;5074285;28;20203;-78
2021/07/19 09:24:51;;;;;;;12.38;4.25;;;;;;;21.16;100.00;94076.31;5074017;28;20599;-79
2021/07/19 09:27:19;;;;;;;6.28;3.60;;;;;;;21.52;100.00;94079.16;5073984;28;20234;-80
2021/07/19 09:29:46;;;;;;;10.82;3.85;;;;;;;21.88;100.00;94081.09;5073749;28;20198;-80
2021/07/19 09:32:12;;;;;;;8.07;4.10;;;;;;;21.74;100.00;94084.25;5073245;28;20438;-79
2021/07/19 09:34:42;;;;;;;5.65;3.80;;;;;;;21.78;100.00;94080.03;5074007;28;20195;-81
2021/07/19 09:37:13;;;;;;;8.02;3.55;;;;;;;21.85;100.00;94074.47;5074176;28;20237;-80
2021/07/19 09:39:42;;;;;;;7.40;3.72;;;;;;;21.84;100.00;94080.03;5074081;28;20684;-80
2021/07/19 09:42:15;;;;;;;10.75;3.95;;;;;;;21.86;100.00;94075.25;5073815;28;20210;-79
2021/07/19 09:44:42;;;;;;;6.88;3.28;;;;;;;22.11;100.00;94069.94;5073627;28;20249;-80
2021/07/19 09:47:12;;;;;;;5.43;3.40;;;;;;;22.29;97.62;94066.00;5073598;28;20657;-80
2021/07/19 09:49:39;;;;;;;5.90;2.90;;;;;;;22.41;99.57;94076.38;5073632;28;20226;-79
2021/07/19 09:52:08;;;;;;;5.97;3.45;;;;;;;22.58;95.84;94064.66;5073663;28;20198;-80
2021/07/19 09:54:37;;;;;;;6.55;3.60;;;;;;;22.26;96.01;94071.03;5073642;28;20380;-78
2021/07/19 09:57:04;;;;;;;15.13;4.50;;;;;;;22.21;95.23;94069.16;5073361;28;20223;-77
2021/07/19 09:59:33;;;;;;;15.80;4.13;;;;;;;22.12;98.81;94066.25;5073365;28;20714;-79
2021/07/19 10:02:01;;;;;;;6.50;3.33;;;;;;;22.27;97.64;94072.63;5073605;28;20645;-78
2021/07/19 10:04:28;;;;;;;9.20;3.38;;;;;;;22.43;95.25;94071.59;5073289;28;20654;-81
2021/07/19 10:06:58;;;;;;;8.07;3.60;;;;;;;22.51;95.85;94055.06;5073328;28;20202;-80
2021/07/19 10:09:25;;;;;;;11.75;3.50;;;;;;;22.60;96.80;94054.53;5073517;28;20206;-80
2021/07/19 10:11:53;;;;;;;8.38;3.25;;;;;;;22.73;93.50;94062.78;5073112;28;20205;-80
2021/07/19 10:14:27;;;;;;;10.70;3.75;;;;;;;22.79;97.47;94057.44;5073329;28;20209;-81
2021/07/19 10:16:56;;;;;;;9.82;3.65;;;;;;;22.79;91.72;94050.25;5073351;28;20230;-80
2021/07/19 10:19:24;;;;;;;6.80;3.50;;;;;;;22.70;88.46;94065.19;5073249;28;20194;-78
2021/07/19 10:21:54;;;;;;;8.85;3.40;;;;;;;22.78;96.57;94059.28;5073082;28;20199;-80
2021/07/19 10:24:22;;;;;;;6.65;3.28;;;;;;;22.82;92.10;94059.56;5072839;28;20222;-81
2021/07/19 10:26:52;;;;;;;8.13;3.38;;;;;;;22.96;89.00;94068.56;5073049;28;20262;-80
2021/07/19 10:29:19;;;;;;;10.45;3.63;;;;;;;23.13;92.45;94060.28;5072975;28;20225;-81
2021/07/19 10:31:46;;;;;;;8.43;3.72;;;;;;;22.99;86.58;94061.91;5073087;28;20225;-80
2021/07/19 10:34:14;;;;;;;13.35;3.47;;;;;;;23.08;89.91;94060.31;5073055;28;20230;-79
2021/07/19 10:36:49;;;;;;;9.23;3.90;;;;;;;23.10;87.58;94063.50;5072192;28;20284;-81
2021/07/19 10:39:22;;;;;;;7.65;3.53;;;;;;;23.18;88.61;94054.97;5073057;28;20201;-80
2021/07/19 10:41:59;;;;;;;7.78;3.42;;;;;;;23.40;88.20;94062.59;5072262;28;20203;-81
2021/07/19 10:44:28;;;;;;;7.50;3.60;;;;;;;23.36;88.59;94056.19;5073004;28;20205;-81
2021/07/19 10:46:57;;;;;;;5.30;3.15;;;;;;;23.31;86.16;94050.09;5072820;28;20654;-79
2021/07/19 10:49:30;;;;;;;10.93;3.50;;;;;;;23.33;92.99;94047.97;5072940;28;20199;-80
2021/07/19 10:51:56;;;;;;;8.20;3.25;;;;;;;23.36;87.03;94055.41;5072988;28;20230;-81
2021/07/19 10:54:24;;;;;;;8.40;3.33;;;;;;;23.34;81.78;94053.00;5072653;28;20661;-80
2021/07/19 10:56:54;;;;;;;7.80;3.80;;;;;;;23.31;83.75;94050.88;5072865;28;20226;-79
2021/07/19 10:59:28;;;;;;;11.15;3.65;;;;;;;23.39;84.84;94049.53;5072682;28;20213;-80
2021/07/19 11:01:56;;;;;;;9.43;3.58;;;;;;;23.37;81.82;94049.03;5072686;28;20210;-80
2021/07/19 11:04:25;;;;;;;8.43;3.17;;;;;;;23.45;83.25;94053.78;5072799;28;20206;-80
2021/07/19 11:06:57;;;;;;;12.43;3.35;;;;;;;23.53;86.96;94050.53;5072685;28;20673;-78
2021/07/19 11:09:35;;;;;;;10.32;3.42;;;;;;;23.62;83.31;94048.88;5072521;28;20711;-80
2021/07/19 11:12:11;;;;;;;8.48;3.33;;;;;;;23.48;81.28;94050.53;5072593;28;20289;-79
2021/07/19 11:14:46;;;;;;;6.07;3.15;;;;;;;23.54;80.85;94054.78;5072667;28;20247;-79
2021/07/19 11:17:17;;;;;;;11.63;3.67;;;;;;;23.48;80.91;94047.88;5072694;28;20588;-79
2021/07/19 11:19:46;;;;;;;8.88;3.10;;;;;;;23.60;77.36;94045.69;5072613;28;20294;-79
2021/07/19 11:22:20;;;;;;;6.32;2.83;;;;;;;23.73;79.07;94043.47;5072576;28;20233;-80
2021/07/19 11:24:48;;;;;;;10.70;2.92;;;;;;;23.79;80.02;94042.38;5072280;28;20198;-80
2021/07/19 11:27:18;;;;;;;12.95;3.40;;;;;;;23.51;77.34;94041.22;5072157;28;20234;-80
2021/07/19 11:29:46;;;;;;;9.88;2.70;;;;;;;23.50;72.38;94040.44;5072575;28;20199;-79